createdAt,value
2023-02-12T00:02:01.158Z,28.52
2023-02-12T00:04:47.493Z,29.15
2023-02-12T00:07:32.495Z,23.65
2023-02-12T00:10:17.773Z,22.88
2023-02-12T00:13:02.504Z,17.63
2023-02-12T00:15:47.096Z,20.35
2023-02-12T00:18:32.013Z,21.33
2023-02-12T00:21:16.750Z,17.75
2023-02-12T00:24:03.403Z,14.93
2023-02-12T00:26:50.317Z,15.70
2023-02-12T00:29:34.937Z,13.98
2023-02-12T00:32:19.811Z,13.68
2023-02-12T00:35:04.973Z,12.85
2023-02-12T00:40:34.177Z,13.43
2023-02-12T00:43:19.277Z,12.88
2023-02-12T00:46:06.288Z,12.27
2023-02-12T00:48:51.047Z,11.30
2023-02-12T00:51:37.855Z,11.38
2023-02-12T00:54:23.048Z,9.63
2023-02-12T00:57:07.903Z,11.70
2023-02-12T00:59:52.545Z,11.50
2023-02-12T01:02:37.142Z,9.10
2023-02-12T01:05:22.204Z,6.93
2023-02-12T01:08:12.820Z,7.50
2023-02-12T01:11:00.157Z,8.10
2023-02-12T01:13:45.839Z,6.63
2023-02-12T01:16:35.800Z,5.63
2023-02-12T01:19:20.408Z,7.05
2023-02-12T01:22:05.008Z,5.93
2023-02-12T01:24:49.788Z,6.05
2023-02-12T01:27:34.502Z,5.30
2023-02-12T01:30:22.744Z,4.45
2023-02-12T01:33:09.102Z,4.63
2023-02-12T01:35:54.502Z,5.70
2023-02-12T01:38:39.994Z,3.92
2023-02-12T01:41:29.429Z,3.47
2023-02-12T01:44:22.773Z,3.45
2023-02-12T01:47:17.569Z,2.50
2023-02-12T01:50:03.072Z,3.33
2023-02-12T01:52:52.764Z,2.17
2023-02-12T01:55:38.055Z,1.67
2023-02-12T01:58:26.193Z,2.03
2023-02-12T02:01:17.562Z,1.85
2023-02-12T02:04:07.721Z,1.77
2023-02-12T02:06:57.510Z,2.67
2023-02-12T02:09:43.050Z,1.65
2023-02-12T02:12:48.640Z,1.90
2023-02-12T02:15:37.329Z,3.15
2023-02-12T02:18:37.250Z,2.25
2023-02-12T02:21:57.680Z,2.17
2023-02-12T02:25:29.077Z,2.50
2023-02-12T02:28:22.583Z,2.20
2023-02-12T02:31:21.180Z,2.35
2023-02-12T02:34:15.032Z,2.58
2023-02-12T02:37:15.602Z,2.90
2023-02-12T02:40:14.502Z,5.18
2023-02-12T02:43:06.881Z,2.03
2023-02-12T02:45:58.639Z,3.88
2023-02-12T02:48:52.014Z,2.63
2023-02-12T02:51:42.658Z,3.92
2023-02-12T02:54:37.418Z,3.28
2023-02-12T02:57:29.732Z,2.38
2023-02-12T03:05:08.281Z,3.20
2023-02-12T03:08:00.961Z,3.33
2023-02-12T03:10:49.474Z,2.70
2023-02-12T03:13:40.589Z,2.15
2023-02-12T03:16:28.888Z,1.70
2023-02-12T03:19:19.601Z,3.38
2023-02-12T03:22:09.916Z,1.98
2023-02-12T03:25:14.180Z,2.10
2023-02-12T03:28:17.810Z,1.55
2023-02-12T03:31:30.483Z,3.13
2023-02-12T03:34:29.624Z,4.55
2023-02-12T03:37:28.473Z,4.28
2023-02-12T03:40:32.027Z,2.78
2023-02-12T03:43:28.948Z,2.65
2023-02-12T03:46:49.555Z,2.03
2023-02-12T03:49:55.176Z,2.75
2023-02-12T03:52:40.654Z,2.00
2023-02-12T03:55:25.827Z,3.35
2023-02-12T03:58:17.442Z,3.45
2023-02-12T04:01:03.444Z,3.65
2023-02-12T04:03:48.349Z,3.10
2023-02-12T04:06:33.665Z,2.50
2023-02-12T04:09:21.284Z,2.65
2023-02-12T04:12:14.337Z,3.50
2023-02-12T04:15:11.067Z,2.67
2023-02-12T04:18:09.767Z,3.00
2023-02-12T04:21:24.263Z,4.93
2023-02-12T04:24:35.252Z,2.85
2023-02-12T04:27:47.118Z,3.10
2023-02-12T04:30:36.843Z,2.28
2023-02-12T04:33:24.840Z,2.38
2023-02-12T04:36:16.390Z,3.13
2023-02-12T04:39:11.739Z,2.78
2023-02-12T04:42:00.818Z,3.83
2023-02-12T04:44:46.031Z,1.67
2023-02-12T04:47:30.625Z,2.53
2023-02-12T04:53:00.227Z,4.13
2023-02-12T04:58:29.597Z,2.88
2023-02-12T05:03:59.259Z,2.22
2023-02-12T05:06:45.260Z,2.55
2023-02-12T05:09:30.026Z,1.80
2023-02-12T05:14:59.429Z,1.80
2023-02-12T05:17:45.206Z,2.35
2023-02-12T05:20:29.881Z,2.88
2023-02-12T05:26:01.596Z,4.30
2023-02-12T05:28:47.070Z,3.45
2023-02-12T05:31:31.868Z,4.75
2023-02-12T05:37:02.088Z,2.90
2023-02-12T05:39:49.340Z,1.83
2023-02-12T05:42:34.253Z,2.65
2023-02-12T05:48:03.806Z,3.15
2023-02-12T05:53:33.274Z,2.35
2023-02-12T05:59:12.344Z,3.03
2023-02-12T06:01:56.905Z,3.35
2023-02-12T06:07:26.584Z,4.28
2023-02-12T06:10:11.461Z,2.30
2023-02-12T06:15:40.865Z,2.13
2023-02-12T06:18:26.566Z,3.78
2023-02-12T06:21:11.390Z,3.22
2023-02-12T06:26:40.764Z,2.65
2023-02-12T06:32:12.933Z,3.03
2023-02-12T06:34:57.574Z,4.18
2023-02-12T06:40:27.343Z,2.72
2023-02-12T06:46:00.837Z,4.07
2023-02-12T06:48:45.691Z,1.95
2023-02-12T06:54:16.942Z,4.07
2023-02-12T06:57:02.110Z,2.05
2023-02-12T07:02:31.546Z,3.35
2023-02-12T07:08:01.022Z,3.33
2023-02-12T07:13:34.132Z,2.65
2023-02-12T07:16:19.470Z,2.15
2023-02-12T07:19:04.432Z,3.67
2023-02-12T07:24:34.325Z,2.45
2023-02-12T07:27:19.358Z,3.83
2023-02-12T07:30:05.910Z,2.85
2023-02-12T07:32:50.902Z,3.67
2023-02-12T07:35:35.856Z,8.40
2023-02-12T07:41:14.957Z,5.60
2023-02-12T07:44:10.671Z,3.97
2023-02-12T07:46:55.205Z,4.97
2023-02-12T07:49:39.809Z,2.95
2023-02-12T07:55:09.832Z,5.45
2023-02-12T07:57:54.505Z,3.92
2023-02-12T08:00:39.590Z,4.05
2023-02-12T08:03:24.606Z,2.60
2023-02-12T08:06:12.227Z,3.50
2023-02-12T08:08:59.395Z,4.57
2023-02-12T08:11:45.419Z,5.00
2023-02-12T08:14:29.977Z,2.40
2023-02-12T08:17:15.004Z,3.72
2023-02-12T08:19:59.840Z,4.03
2023-02-12T08:22:44.930Z,3.80
2023-02-12T08:25:29.449Z,2.53
2023-02-12T08:28:14.459Z,3.17
2023-02-12T08:31:01.423Z,4.70
2023-02-12T08:33:48.200Z,3.45
2023-02-12T08:36:38.874Z,3.10
2023-02-12T08:39:25.851Z,5.65
2023-02-12T08:42:10.761Z,5.53
2023-02-12T08:44:55.480Z,5.70
2023-02-12T08:47:41.064Z,3.17
2023-02-12T08:50:25.919Z,3.83
2023-02-12T08:53:11.034Z,3.92
2023-02-12T08:55:56.200Z,2.70
2023-02-12T08:58:41.820Z,4.30
2023-02-12T09:01:28.639Z,3.28
2023-02-12T09:04:17.265Z,4.38
2023-02-12T09:07:02.356Z,4.28
2023-02-12T09:09:47.216Z,2.22
2023-02-12T09:12:32.243Z,4.63
2023-02-12T09:15:17.035Z,4.00
2023-02-12T09:18:03.425Z,4.57
2023-02-12T09:20:48.230Z,5.47
2023-02-12T09:23:33.171Z,2.75
2023-02-12T09:26:20.528Z,4.00
2023-02-12T09:29:05.580Z,4.32
2023-02-12T09:31:50.631Z,4.43
2023-02-12T09:34:36.429Z,5.88
2023-02-12T09:37:20.898Z,3.28
2023-02-12T09:40:06.768Z,4.07
2023-02-12T09:43:19.688Z,2.38
2023-02-12T09:46:14.198Z,5.72
2023-02-12T09:49:12.619Z,6.28
2023-02-12T09:51:58.179Z,5.28
2023-02-12T09:54:44.489Z,4.63
2023-02-12T09:57:35.545Z,5.07
2023-02-12T10:00:30.865Z,3.88
2023-02-12T10:03:17.073Z,3.42
2023-02-12T10:06:10.766Z,4.05
2023-02-12T10:09:17.183Z,2.92
2023-02-12T10:12:34.164Z,3.08
2023-02-12T10:15:47.597Z,3.55
2023-02-12T10:18:56.475Z,4.13
2023-02-12T10:21:51.400Z,5.05
2023-02-12T10:24:47.565Z,5.82
2023-02-12T10:27:32.539Z,3.60
2023-02-12T10:30:46.564Z,4.47
2023-02-12T10:33:39.205Z,6.00
2023-02-12T10:36:41.751Z,3.72
2023-02-12T10:39:31.153Z,4.72
2023-02-12T10:42:33.227Z,3.40
2023-02-12T10:45:28.855Z,3.85
2023-02-12T10:48:21.690Z,3.05
2023-02-12T10:51:09.182Z,2.78
2023-02-12T10:53:56.705Z,5.57
2023-02-12T10:56:41.639Z,2.97
2023-02-12T11:02:31.941Z,2.72
2023-02-12T11:05:25.318Z,2.53
2023-02-12T11:08:36.682Z,2.42
2023-02-12T11:11:28.222Z,1.90
2023-02-12T11:14:19.916Z,1.88
2023-02-12T11:17:04.747Z,2.88
2023-02-12T11:20:21.304Z,4.50
2023-02-12T11:23:24.434Z,3.22
2023-02-12T11:26:18.389Z,3.60
2023-02-12T11:29:18.733Z,1.60
2023-02-12T11:32:09.407Z,1.85
2023-02-12T11:35:12.184Z,2.90
2023-02-12T11:37:58.554Z,3.13
2023-02-12T11:40:47.037Z,2.15
2023-02-12T11:43:36.622Z,3.38
2023-02-12T11:46:25.052Z,5.30
2023-02-12T11:49:20.810Z,4.25
2023-02-12T11:52:07.101Z,2.92
2023-02-12T11:54:55.917Z,4.70
2023-02-12T11:57:49.927Z,2.80
2023-02-12T12:00:45.585Z,3.60
2023-02-12T12:03:51.917Z,2.13
2023-02-12T12:07:18.983Z,3.75
2023-02-12T12:10:15.229Z,4.38
2023-02-12T12:13:04.922Z,3.95
2023-02-12T12:16:22.892Z,1.85
2023-02-12T12:19:56.300Z,1.60
2023-02-12T12:22:51.111Z,2.45
2023-02-12T12:25:43.170Z,2.25
2023-02-12T12:28:39.911Z,2.60
2023-02-12T12:31:24.788Z,3.00
2023-02-12T12:34:13.330Z,1.85
2023-02-12T12:37:30.202Z,3.60
2023-02-12T12:40:42.170Z,2.90
2023-02-12T12:43:37.266Z,2.53
2023-02-12T12:46:40.482Z,2.55
2023-02-12T12:49:43.429Z,3.13
2023-02-12T12:52:51.185Z,3.25
2023-02-12T12:56:12.666Z,3.45
2023-02-12T12:59:23.294Z,4.47
2023-02-12T13:02:26.851Z,1.80
2023-02-12T13:05:41.571Z,1.65
2023-02-12T13:09:01.257Z,3.25
2023-02-12T13:11:48.721Z,1.52
2023-02-12T13:14:51.497Z,2.67
2023-02-12T13:17:57.251Z,3.65
2023-02-12T13:21:33.347Z,3.25
2023-02-12T13:31:31.810Z,2.03
2023-02-12T13:34:18.191Z,2.75
2023-02-12T13:37:06.004Z,3.65
2023-02-12T13:39:52.351Z,3.90
2023-02-12T13:42:58.873Z,2.30
2023-02-12T13:45:59.108Z,1.80
2023-02-12T13:48:44.036Z,3.75
2023-02-12T13:52:06.502Z,3.08
2023-02-12T13:55:00.186Z,5.30
2023-02-12T13:57:45.360Z,1.73
2023-02-12T14:00:51.864Z,3.78
2023-02-12T14:03:38.177Z,6.70
2023-02-12T14:06:24.508Z,3.08
2023-02-12T14:09:10.904Z,3.65
2023-02-12T14:11:56.261Z,5.82
2023-02-12T14:14:47.056Z,6.43
2023-02-12T14:17:31.753Z,3.13
2023-02-12T14:20:30.926Z,4.45
2023-02-12T14:23:42.925Z,9.88
2023-02-12T14:26:36.295Z,7.40
2023-02-12T14:29:21.640Z,7.75
2023-02-12T14:32:40.866Z,5.40
2023-02-12T14:35:25.633Z,8.55
2023-02-12T14:38:17.626Z,4.20
2023-02-12T14:41:41.150Z,6.40
2023-02-12T14:44:28.108Z,4.97
2023-02-12T14:47:31.383Z,5.00
2023-02-12T14:50:22.318Z,4.03
2023-02-12T14:53:23.248Z,7.32
2023-02-12T14:56:10.381Z,3.28
2023-02-12T14:58:57.413Z,5.32
2023-02-12T15:01:43.289Z,5.15
2023-02-12T15:04:31.456Z,5.10
2023-02-12T15:07:55.016Z,3.33
2023-02-12T15:10:47.019Z,4.78
2023-02-12T15:13:47.669Z,4.95
2023-02-12T15:16:52.756Z,2.45
2023-02-12T15:19:43.530Z,2.90
2023-02-12T15:22:39.847Z,8.65
2023-02-12T15:25:26.028Z,7.30
2023-02-12T15:28:21.082Z,5.13
2023-02-12T15:31:10.880Z,8.68
2023-02-12T15:33:58.649Z,6.25
2023-02-12T15:36:45.458Z,9.13
2023-02-12T15:39:43.418Z,7.57
2023-02-12T15:42:30.498Z,9.13
2023-02-12T15:45:15.565Z,9.40
2023-02-12T15:51:30.069Z,13.07
2023-02-12T15:54:19.517Z,18.05
2023-02-12T15:57:10.629Z,18.88
2023-02-12T16:00:02.169Z,30.23
2023-02-12T16:02:52.232Z,23.80
2023-02-12T16:05:37.144Z,27.35
2023-02-12T16:11:14.195Z,28.73
2023-02-12T16:14:21.650Z,33.33
2023-02-12T16:17:24.940Z,29.40
2023-02-12T16:20:17.340Z,37.83
2023-02-12T16:23:06.690Z,35.97
2023-02-12T16:25:55.544Z,43.40
2023-02-12T16:28:49.196Z,45.75
2023-02-12T16:31:34.420Z,50.30
2023-02-12T16:37:36.867Z,44.38
2023-02-12T16:40:25.987Z,43.10
2023-02-12T16:43:31.334Z,42.47
2023-02-12T16:46:17.528Z,43.13
2023-02-12T16:49:03.044Z,43.40
2023-02-12T16:51:48.719Z,44.47
2023-02-12T16:54:35.063Z,48.00
2023-02-12T16:57:19.731Z,44.33
2023-02-12T17:00:07.903Z,47.60
2023-02-12T17:02:57.085Z,41.85
2023-02-12T17:05:44.447Z,50.42
2023-02-12T17:08:29.400Z,46.75
2023-02-12T17:11:17.000Z,51.22
2023-02-12T17:14:01.559Z,31.63
2023-02-12T17:19:31.974Z,26.52
2023-02-12T17:25:06.754Z,26.90
2023-02-12T17:27:54.351Z,25.70
2023-02-12T17:30:39.252Z,26.88
2023-02-12T17:33:24.389Z,67.30
2023-02-12T17:38:54.746Z,73.80
2023-02-12T17:41:40.252Z,68.10
2023-02-12T17:44:25.865Z,63.15
2023-02-12T17:47:10.524Z,40.53
2023-02-12T17:49:55.647Z,29.15
2023-02-12T17:55:25.640Z,21.08
2023-02-12T17:58:10.396Z,20.42
2023-02-12T18:03:41.773Z,18.63
2023-02-12T18:06:29.234Z,24.25
2023-02-12T18:09:14.069Z,21.70
2023-02-12T18:14:43.579Z,14.30
2023-02-12T18:17:29.897Z,12.45
2023-02-12T18:22:59.199Z,14.98
2023-02-12T18:25:44.067Z,18.13
2023-02-12T18:31:14.726Z,16.90
2023-02-12T18:33:59.583Z,14.68
2023-02-12T18:36:44.498Z,18.15
2023-02-12T18:39:29.477Z,15.55
2023-02-12T18:42:14.505Z,20.25
2023-02-12T18:44:59.155Z,14.30
2023-02-12T18:47:44.775Z,13.13
2023-02-12T18:50:29.481Z,17.63
2023-02-12T18:53:14.059Z,17.88
2023-02-12T18:55:58.736Z,14.10
2023-02-12T18:58:43.781Z,12.77
2023-02-12T19:01:28.975Z,9.55
2023-02-12T19:04:15.604Z,11.75
2023-02-12T19:07:00.592Z,10.48
2023-02-12T19:09:45.135Z,10.82
2023-02-12T19:15:14.760Z,11.65
2023-02-12T19:17:59.571Z,13.88
2023-02-12T19:20:45.280Z,16.48
2023-02-12T19:23:29.980Z,16.52
2023-02-12T19:29:00.799Z,11.45
2023-02-12T19:31:46.265Z,13.95
2023-02-12T19:34:31.057Z,11.77
2023-02-12T19:37:15.952Z,9.90
2023-02-12T19:40:00.869Z,14.40
2023-02-12T19:42:45.984Z,10.15
2023-02-12T19:48:16.668Z,11.57
2023-02-12T19:51:01.657Z,11.80
2023-02-12T19:53:47.682Z,15.07
2023-02-12T19:56:34.818Z,18.67
2023-02-12T19:59:21.963Z,15.52
2023-02-12T20:02:06.768Z,17.20
2023-02-12T20:04:51.549Z,13.88
2023-02-12T20:10:21.028Z,16.15
2023-02-12T20:15:50.831Z,16.88
2023-02-12T20:18:36.146Z,14.85
2023-02-12T20:21:27.592Z,17.75
2023-02-12T20:26:59.287Z,15.82
2023-02-12T20:29:44.097Z,10.27
2023-02-12T20:32:28.980Z,12.52
2023-02-12T20:37:59.096Z,10.10
2023-02-12T20:43:30.225Z,9.95
2023-02-12T20:46:21.916Z,6.72
2023-02-12T20:49:06.880Z,6.88
2023-02-12T20:51:52.180Z,5.88
2023-02-12T20:54:38.446Z,8.20
2023-02-12T20:57:23.435Z,7.82
2023-02-12T21:02:54.307Z,7.85
2023-02-12T21:05:38.861Z,9.02
2023-02-12T21:08:23.702Z,11.48
2023-02-12T21:11:14.710Z,9.63
2023-02-12T21:14:12.626Z,8.35
2023-02-12T21:17:05.064Z,13.25
2023-02-12T21:19:49.853Z,10.77
2023-02-12T21:22:34.920Z,9.70
2023-02-12T21:25:19.834Z,11.00
2023-02-12T21:30:49.302Z,21.38
2023-02-12T21:33:33.897Z,17.83
2023-02-12T21:36:24.956Z,11.38
2023-02-12T21:39:15.795Z,13.75
2023-02-12T21:42:03.061Z,14.57
2023-02-12T21:44:47.908Z,12.35
2023-02-12T21:47:32.736Z,8.00
2023-02-12T21:53:02.614Z,9.60
2023-02-12T21:55:48.309Z,9.52
2023-02-12T21:58:33.557Z,11.50
2023-02-12T22:01:22.093Z,14.50
2023-02-12T22:04:08.268Z,8.65
2023-02-12T22:06:53.734Z,8.18
2023-02-12T22:09:38.624Z,8.05
2023-02-12T22:12:23.855Z,10.35
2023-02-12T22:15:09.058Z,10.02
2023-02-12T22:20:38.754Z,8.85
2023-02-12T22:23:23.777Z,11.95
2023-02-12T22:26:14.734Z,10.10
2023-02-12T22:29:03.588Z,10.38
2023-02-12T22:31:48.273Z,9.40
2023-02-12T22:34:33.181Z,10.90
2023-02-12T22:37:18.285Z,10.23
2023-02-12T22:42:47.458Z,9.50
2023-02-12T22:48:16.989Z,8.57
2023-02-12T22:51:11.308Z,11.60
2023-02-12T22:53:56.345Z,11.90
2023-02-12T22:56:42.188Z,11.43
2023-02-12T22:59:27.329Z,14.13
2023-02-12T23:02:12.272Z,15.02
2023-02-12T23:07:41.756Z,11.35
2023-02-12T23:13:21.282Z,10.65
2023-02-12T23:16:12.905Z,8.57
2023-02-12T23:18:59.604Z,10.15
2023-02-12T23:21:44.356Z,11.20
2023-02-12T23:24:29.474Z,9.65
2023-02-12T23:27:14.399Z,8.88
2023-02-12T23:32:43.719Z,8.70
2023-02-12T23:35:28.394Z,10.18
2023-02-12T23:38:13.461Z,9.90
2023-02-12T23:43:43.384Z,13.70
2023-02-12T23:46:28.382Z,12.85
2023-02-12T23:51:57.817Z,13.18
2023-02-12T23:54:42.378Z,11.95
2023-02-12T23:57:27.284Z,11.90
